Page, ND

1:18 PM CDT on August 21, 2014 (GMT -0500)
Moorhead Municipal | Change Station
CLOSE
Current Station
Airport
Location: Moorhead,
Elevation: 919 ft
Nearby Weather Stations

Elev 919 ft 46.84 °N, 96.66 °W | Updated 4 minutes ago

Mostly Cloudy
Mostly Cloudy
77 °F
Feels Like 77 °F
N
9
Wind Variable Wind from ESE

Today
High -- | Low -- °F
--% Chance of Precip.
Yesterday
High -- | Low -- °F
Precip. -- in
6:35 AM 8:30 PM
Waning Crescent, 13% visible
Pressure 29.77 in
Visibility 10.0 miles
Clouds Scattered Clouds 1600 ft
Scattered Clouds 2100 ft
Mostly Cloudy 3000 ft
Dew Point 72 °F
Humidity 83%
Rainfall 0.12 in
Snow Depth Not available.
UV 5 out of 12
Pollen 6.30 out of 12
Air Quality Not available.
Flu Activity Not available.
METAR KJKJ 211814Z AUTO 11008KT 10SM SCT016 SCT021 BKN030 25/22 A2977 RMK AO2

More Conditions Fewer Conditions

Pressure 29.77 in
Visibility 10.0 miles
Clouds Scattered Clouds 1600 ft
Scattered Clouds 2100 ft
Mostly Cloudy 3000 ft
Dew Point 72 °F
Humidity 83%
Rainfall 0.12 in
Snow Depth Not available.
UV 5 out of 12
Pollen 6.30 out of 12
Air Quality Not available.
Flu Activity Not available.
METAR KJKJ 211814Z AUTO 11008KT 10SM SCT016 SCT021 BKN030 25/22 A2977 RMK AO2

More Conditions Fewer Conditions

10-Day Weather Forecast

Almanac

Astronomy

Aug. 21, 2014 Rise Set
Actual Time 6:35 AM CDT 8:30 PM CDT
Civil Twilight 6:02 AM CDT 9:03 PM CDT
Nautical Twilight 5:22 AM CDT 9:43 PM CDT
Astronomical Twilight 4:37 AM CDT 10:27 PM CDT
Moon 3:00 AM CDT 6:06 PM CDT
Length of Visible Light 15h 01m
Length of Day
13h 55m
Tomorrow will be 3m 8s shorter.
Waning Crescent, 13% of the Moon is Illuminated
Today
Waning Crescent
Aug 25
New
Sep 2
First Quarter
Sep 8
Full
Sep 15
Last Quarter

Today's Extremes

State Highs State Lows

Community

WunderPhotos

Upload Photos

1,745,992 photos uploaded!

WunderBlogs® & News

Nearby

Snow Depth

Station Depth Elevation
No new snow has been reported.

Earthquake Activity

City Distance Mag. Time & Date
No recent earthquake activity has been reported nearby.
Minimum magnitude displayed is 2.5.

Coastal Water Temperatures

Place Temperature
No Stations Reporting

Nearby Weather Stations